sensor_id;sensor_type;location;lat;lon;timestamp;P1;durP1;ratioP1;P2;durP2;ratioP2
74213;SDS011;62576;55.694;37.494;2023-09-19T00:00:58;20.27;;;11.13;;
74213;SDS011;62576;55.694;37.494;2023-09-19T00:03:27;24.60;;;11.45;;
74213;SDS011;62576;55.694;37.494;2023-09-19T00:05:57;20.00;;;10.70;;
74213;SDS011;62576;55.694;37.494;2023-09-19T00:08:28;21.52;;;11.32;;
74213;SDS011;62576;55.694;37.494;2023-09-19T00:10:59;23.33;;;11.05;;
74213;SDS011;62576;55.694;37.494;2023-09-19T00:13:33;20.42;;;11.35;;
74213;SDS011;62576;55.694;37.494;2023-09-19T00:16:08;22.80;;;10.93;;
74213;SDS011;62576;55.694;37.494;2023-09-19T00:18:38;26.65;;;11.82;;
74213;SDS011;62576;55.694;37.494;2023-09-19T00:21:08;21.42;;;10.65;;
74213;SDS011;62576;55.694;37.494;2023-09-19T00:23:38;27.67;;;11.73;;
74213;SDS011;62576;55.694;37.494;2023-09-19T00:26:10;26.20;;;12.18;;
74213;SDS011;62576;55.694;37.494;2023-09-19T00:28:40;25.05;;;11.35;;
74213;SDS011;62576;55.694;37.494;2023-09-19T00:31:10;28.75;;;11.65;;
74213;SDS011;62576;55.694;37.494;2023-09-19T00:33:41;23.98;;;11.20;;
74213;SDS011;62576;55.694;37.494;2023-09-19T00:36:11;28.55;;;11.80;;
74213;SDS011;62576;55.694;37.494;2023-09-19T00:38:42;28.73;;;12.13;;
74213;SDS011;62576;55.694;37.494;2023-09-19T00:41:15;32.97;;;12.75;;
74213;SDS011;62576;55.694;37.494;2023-09-19T00:43:45;26.05;;;12.93;;
74213;SDS011;62576;55.694;37.494;2023-09-19T00:46:16;33.65;;;12.63;;
74213;SDS011;62576;55.694;37.494;2023-09-19T00:48:46;31.20;;;15.68;;
74213;SDS011;62576;55.694;37.494;2023-09-19T00:51:16;36.25;;;16.83;;
74213;SDS011;62576;55.694;37.494;2023-09-19T00:53:48;35.33;;;18.10;;
74213;SDS011;62576;55.694;37.494;2023-09-19T00:56:20;40.65;;;19.00;;
74213;SDS011;62576;55.694;37.494;2023-09-19T01:01:20;40.50;;;19.88;;
74213;SDS011;62576;55.694;37.494;2023-09-19T01:03:50;44.63;;;20.85;;
74213;SDS011;62576;55.694;37.494;2023-09-19T01:06:20;47.70;;;21.15;;
74213;SDS011;62576;55.694;37.494;2023-09-19T01:08:50;46.28;;;21.02;;
74213;SDS011;62576;55.694;37.494;2023-09-19T01:11:21;44.75;;;21.10;;
74213;SDS011;62576;55.694;37.494;2023-09-19T01:13:55;43.53;;;20.02;;
74213;SDS011;62576;55.694;37.494;2023-09-19T01:16:30;44.38;;;21.00;;
74213;SDS011;62576;55.694;37.494;2023-09-19T01:19:07;42.97;;;20.73;;
74213;SDS011;62576;55.694;37.494;2023-09-19T01:21:42;44.05;;;20.50;;
74213;SDS011;62576;55.694;37.494;2023-09-19T01:24:22;40.83;;;19.13;;
74213;SDS011;62576;55.694;37.494;2023-09-19T01:27:00;35.88;;;19.83;;
74213;SDS011;62576;55.694;37.494;2023-09-19T01:29:37;43.53;;;20.10;;
74213;SDS011;62576;55.694;37.494;2023-09-19T01:32:10;42.55;;;19.45;;
74213;SDS011;62576;55.694;37.494;2023-09-19T01:34:45;41.08;;;19.90;;
74213;SDS011;62576;55.694;37.494;2023-09-19T01:37:17;44.20;;;20.73;;
74213;SDS011;62576;55.694;37.494;2023-09-19T01:39:49;42.53;;;21.23;;
74213;SDS011;62576;55.694;37.494;2023-09-19T01:42:22;38.78;;;20.52;;
74213;SDS011;62576;55.694;37.494;2023-09-19T01:44:55;40.17;;;20.45;;
74213;SDS011;62576;55.694;37.494;2023-09-19T01:47:31;39.90;;;20.73;;
74213;SDS011;62576;55.694;37.494;2023-09-19T01:50:05;42.53;;;21.27;;
74213;SDS011;62576;55.694;37.494;2023-09-19T01:52:36;40.97;;;21.60;;
74213;SDS011;62576;55.694;37.494;2023-09-19T01:55:11;44.92;;;21.73;;
74213;SDS011;62576;55.694;37.494;2023-09-19T01:57:41;47.45;;;23.13;;
74213;SDS011;62576;55.694;37.494;2023-09-19T02:00:12;49.92;;;23.50;;
74213;SDS011;62576;55.694;37.494;2023-09-19T02:02:46;52.40;;;24.15;;
74213;SDS011;62576;55.694;37.494;2023-09-19T02:05:21;51.15;;;25.27;;
74213;SDS011;62576;55.694;37.494;2023-09-19T02:07:51;47.30;;;24.60;;
74213;SDS011;62576;55.694;37.494;2023-09-19T02:10:21;51.60;;;25.33;;
74213;SDS011;62576;55.694;37.494;2023-09-19T02:12:50;56.80;;;25.77;;
74213;SDS011;62576;55.694;37.494;2023-09-19T02:15:20;53.90;;;25.95;;
74213;SDS011;62576;55.694;37.494;2023-09-19T02:17:52;50.80;;;25.85;;
74213;SDS011;62576;55.694;37.494;2023-09-19T02:20:21;58.13;;;27.70;;
74213;SDS011;62576;55.694;37.494;2023-09-19T02:22:51;54.72;;;26.35;;
74213;SDS011;62576;55.694;37.494;2023-09-19T02:25:20;54.00;;;27.23;;
74213;SDS011;62576;55.694;37.494;2023-09-19T02:27:50;53.20;;;26.58;;
74213;SDS011;62576;55.694;37.494;2023-09-19T02:30:21;54.60;;;26.77;;
74213;SDS011;62576;55.694;37.494;2023-09-19T02:32:54;56.38;;;27.05;;
74213;SDS011;62576;55.694;37.494;2023-09-19T02:35:24;60.63;;;27.00;;
74213;SDS011;62576;55.694;37.494;2023-09-19T02:37:54;59.00;;;26.73;;
74213;SDS011;62576;55.694;37.494;2023-09-19T02:40:24;53.55;;;25.98;;
74213;SDS011;62576;55.694;37.494;2023-09-19T02:42:55;58.13;;;26.88;;
74213;SDS011;62576;55.694;37.494;2023-09-19T02:45:27;54.83;;;26.75;;
74213;SDS011;62576;55.694;37.494;2023-09-19T02:47:59;55.15;;;25.98;;
74213;SDS011;62576;55.694;37.494;2023-09-19T02:50:31;57.10;;;26.63;;
74213;SDS011;62576;55.694;37.494;2023-09-19T02:53:01;61.33;;;25.75;;
74213;SDS011;62576;55.694;37.494;2023-09-19T02:55:32;55.38;;;25.50;;
74213;SDS011;62576;55.694;37.494;2023-09-19T02:58:02;55.58;;;26.90;;
74213;SDS011;62576;55.694;37.494;2023-09-19T03:00:33;50.45;;;25.73;;
74213;SDS011;62576;55.694;37.494;2023-09-19T03:03:05;59.15;;;25.42;;
74213;SDS011;62576;55.694;37.494;2023-09-19T03:05:33;51.38;;;25.38;;
74213;SDS011;62576;55.694;37.494;2023-09-19T03:08:03;55.08;;;25.40;;
74213;SDS011;62576;55.694;37.494;2023-09-19T03:10:33;55.55;;;25.13;;
74213;SDS011;62576;55.694;37.494;2023-09-19T03:13:05;54.47;;;24.27;;
74213;SDS011;62576;55.694;37.494;2023-09-19T03:15:40;53.08;;;24.45;;
74213;SDS011;62576;55.694;37.494;2023-09-19T03:18:13;50.97;;;24.55;;
74213;SDS011;62576;55.694;37.494;2023-09-19T03:20:43;50.88;;;24.30;;
74213;SDS011;62576;55.694;37.494;2023-09-19T03:23:12;46.22;;;23.20;;
74213;SDS011;62576;55.694;37.494;2023-09-19T03:25:42;45.83;;;22.15;;
74213;SDS011;62576;55.694;37.494;2023-09-19T03:28:12;52.35;;;23.67;;
74213;SDS011;62576;55.694;37.494;2023-09-19T03:30:43;47.65;;;22.70;;
74213;SDS011;62576;55.694;37.494;2023-09-19T03:33:14;46.55;;;22.73;;
74213;SDS011;62576;55.694;37.494;2023-09-19T03:35:45;46.90;;;23.58;;
74213;SDS011;62576;55.694;37.494;2023-09-19T03:38:18;47.03;;;22.08;;
74213;SDS011;62576;55.694;37.494;2023-09-19T03:40:48;45.55;;;22.98;;
74213;SDS011;62576;55.694;37.494;2023-09-19T03:43:18;49.15;;;22.88;;
74213;SDS011;62576;55.694;37.494;2023-09-19T03:45:47;53.50;;;23.17;;
74213;SDS011;62576;55.694;37.494;2023-09-19T03:48:20;50.03;;;23.42;;
74213;SDS011;62576;55.694;37.494;2023-09-19T03:50:50;46.70;;;22.42;;
74213;SDS011;62576;55.694;37.494;2023-09-19T03:53:20;53.58;;;24.05;;
74213;SDS011;62576;55.694;37.494;2023-09-19T03:55:50;58.53;;;23.88;;
74213;SDS011;62576;55.694;37.494;2023-09-19T03:58:20;52.00;;;22.70;;
74213;SDS011;62576;55.694;37.494;2023-09-19T04:00:50;55.30;;;23.27;;
74213;SDS011;62576;55.694;37.494;2023-09-19T04:03:21;54.97;;;23.80;;
74213;SDS011;62576;55.694;37.494;2023-09-19T04:05:50;57.53;;;23.50;;
74213;SDS011;62576;55.694;37.494;2023-09-19T04:08:20;58.88;;;24.73;;
74213;SDS011;62576;55.694;37.494;2023-09-19T04:10:50;56.53;;;24.45;;
74213;SDS011;62576;55.694;37.494;2023-09-19T04:13:21;56.13;;;25.08;;
74213;SDS011;62576;55.694;37.494;2023-09-19T04:15:51;59.75;;;23.75;;
74213;SDS011;62576;55.694;37.494;2023-09-19T04:18:22;57.08;;;24.02;;
74213;SDS011;62576;55.694;37.494;2023-09-19T04:20:52;58.05;;;24.60;;
74213;SDS011;62576;55.694;37.494;2023-09-19T04:23:21;57.47;;;23.75;;
74213;SDS011;62576;55.694;37.494;2023-09-19T04:25:51;63.95;;;23.67;;
74213;SDS011;62576;55.694;37.494;2023-09-19T04:28:24;55.75;;;23.65;;
74213;SDS011;62576;55.694;37.494;2023-09-19T04:30:55;62.97;;;24.70;;
74213;SDS011;62576;55.694;37.494;2023-09-19T04:33:27;58.90;;;24.67;;
74213;SDS011;62576;55.694;37.494;2023-09-19T04:35:57;59.03;;;23.00;;
74213;SDS011;62576;55.694;37.494;2023-09-19T04:38:28;59.30;;;22.35;;
74213;SDS011;62576;55.694;37.494;2023-09-19T04:40:57;55.08;;;23.15;;
74213;SDS011;62576;55.694;37.494;2023-09-19T04:43:28;54.30;;;22.42;;
74213;SDS011;62576;55.694;37.494;2023-09-19T04:45:58;50.30;;;20.67;;
74213;SDS011;62576;55.694;37.494;2023-09-19T04:48:30;49.95;;;20.02;;
74213;SDS011;62576;55.694;37.494;2023-09-19T04:50:59;49.03;;;20.73;;
74213;SDS011;62576;55.694;37.494;2023-09-19T04:53:29;47.55;;;19.15;;
74213;SDS011;62576;55.694;37.494;2023-09-19T04:55:59;46.75;;;18.83;;
74213;SDS011;62576;55.694;37.494;2023-09-19T04:58:29;43.35;;;17.05;;
74213;SDS011;62576;55.694;37.494;2023-09-19T05:01:02;44.33;;;17.85;;
74213;SDS011;62576;55.694;37.494;2023-09-19T05:03:33;41.25;;;18.05;;
74213;SDS011;62576;55.694;37.494;2023-09-19T05:06:03;38.28;;;17.13;;
74213;SDS011;62576;55.694;37.494;2023-09-19T05:08:33;37.25;;;16.17;;
74213;SDS011;62576;55.694;37.494;2023-09-19T05:11:03;39.47;;;16.70;;
74213;SDS011;62576;55.694;37.494;2023-09-19T05:13:33;38.28;;;17.38;;
74213;SDS011;62576;55.694;37.494;2023-09-19T05:16:03;36.03;;;16.17;;
74213;SDS011;62576;55.694;37.494;2023-09-19T05:18:37;37.85;;;15.30;;
74213;SDS011;62576;55.694;37.494;2023-09-19T05:21:06;34.55;;;16.65;;
74213;SDS011;62576;55.694;37.494;2023-09-19T05:23:37;32.83;;;16.65;;
74213;SDS011;62576;55.694;37.494;2023-09-19T05:26:09;36.97;;;16.58;;
74213;SDS011;62576;55.694;37.494;2023-09-19T05:28:40;31.77;;;15.38;;
74213;SDS011;62576;55.694;37.494;2023-09-19T05:31:11;35.17;;;16.30;;
74213;SDS011;62576;55.694;37.494;2023-09-19T05:33:42;34.88;;;15.90;;
74213;SDS011;62576;55.694;37.494;2023-09-19T05:36:12;35.58;;;15.63;;
74213;SDS011;62576;55.694;37.494;2023-09-19T05:38:44;29.45;;;14.52;;
74213;SDS011;62576;55.694;37.494;2023-09-19T05:41:13;31.38;;;14.73;;
74213;SDS011;62576;55.694;37.494;2023-09-19T05:43:44;31.40;;;14.90;;
74213;SDS011;62576;55.694;37.494;2023-09-19T05:46:13;29.15;;;14.60;;
74213;SDS011;62576;55.694;37.494;2023-09-19T05:48:46;28.55;;;14.55;;
74213;SDS011;62576;55.694;37.494;2023-09-19T05:51:18;27.33;;;13.80;;
74213;SDS011;62576;55.694;37.494;2023-09-19T05:53:50;27.48;;;14.45;;
74213;SDS011;62576;55.694;37.494;2023-09-19T05:56:23;27.23;;;14.70;;
74213;SDS011;62576;55.694;37.494;2023-09-19T05:58:53;27.73;;;14.13;;
74213;SDS011;62576;55.694;37.494;2023-09-19T06:01:23;26.83;;;14.63;;
74213;SDS011;62576;55.694;37.494;2023-09-19T06:03:54;30.08;;;14.63;;
74213;SDS011;62576;55.694;37.494;2023-09-19T06:06:24;28.58;;;14.55;;
74213;SDS011;62576;55.694;37.494;2023-09-19T06:08:53;29.35;;;14.52;;
74213;SDS011;62576;55.694;37.494;2023-09-19T06:11:23;27.38;;;14.52;;
74213;SDS011;62576;55.694;37.494;2023-09-19T06:13:54;33.47;;;14.98;;
74213;SDS011;62576;55.694;37.494;2023-09-19T06:16:30;25.10;;;14.55;;
74213;SDS011;62576;55.694;37.494;2023-09-19T06:19:01;27.17;;;14.90;;
74213;SDS011;62576;55.694;37.494;2023-09-19T06:21:32;30.20;;;14.95;;
74213;SDS011;62576;55.694;37.494;2023-09-19T06:24:02;32.97;;;15.15;;
74213;SDS011;62576;55.694;37.494;2023-09-19T06:26:32;30.65;;;15.30;;
74213;SDS011;62576;55.694;37.494;2023-09-19T06:29:02;30.65;;;15.52;;
74213;SDS011;62576;55.694;37.494;2023-09-19T06:31:35;30.70;;;14.23;;
74213;SDS011;62576;55.694;37.494;2023-09-19T06:34:06;29.65;;;15.32;;
74213;SDS011;62576;55.694;37.494;2023-09-19T06:36:36;34.25;;;15.50;;
74213;SDS011;62576;55.694;37.494;2023-09-19T06:39:06;27.42;;;14.68;;
74213;SDS011;62576;55.694;37.494;2023-09-19T06:41:39;33.78;;;15.18;;
74213;SDS011;62576;55.694;37.494;2023-09-19T06:44:10;26.50;;;14.85;;
74213;SDS011;62576;55.694;37.494;2023-09-19T06:46:40;27.73;;;14.02;;
74213;SDS011;62576;55.694;37.494;2023-09-19T06:49:11;28.23;;;14.77;;
74213;SDS011;62576;55.694;37.494;2023-09-19T06:51:43;26.60;;;14.68;;
74213;SDS011;62576;55.694;37.494;2023-09-19T06:54:13;28.20;;;14.55;;
74213;SDS011;62576;55.694;37.494;2023-09-19T06:56:43;29.08;;;15.50;;
74213;SDS011;62576;55.694;37.494;2023-09-19T06:59:13;26.73;;;15.30;;
74213;SDS011;62576;55.694;37.494;2023-09-19T07:01:42;26.25;;;14.90;;
74213;SDS011;62576;55.694;37.494;2023-09-19T07:04:16;24.67;;;15.65;;
74213;SDS011;62576;55.694;37.494;2023-09-19T07:06:49;27.20;;;15.07;;
74213;SDS011;62576;55.694;37.494;2023-09-19T07:09:19;27.77;;;15.43;;
74213;SDS011;62576;55.694;37.494;2023-09-19T07:11:50;27.52;;;15.98;;
74213;SDS011;62576;55.694;37.494;2023-09-19T07:14:20;29.73;;;15.93;;
74213;SDS011;62576;55.694;37.494;2023-09-19T07:16:49;27.35;;;15.35;;
74213;SDS011;62576;55.694;37.494;2023-09-19T07:19:21;35.38;;;17.30;;
74213;SDS011;62576;55.694;37.494;2023-09-19T07:21:51;30.60;;;15.80;;
74213;SDS011;62576;55.694;37.494;2023-09-19T07:24:20;28.58;;;16.25;;
74213;SDS011;62576;55.694;37.494;2023-09-19T07:26:52;28.45;;;16.13;;
74213;SDS011;62576;55.694;37.494;2023-09-19T07:29:22;28.73;;;15.98;;
74213;SDS011;62576;55.694;37.494;2023-09-19T07:31:51;33.55;;;16.88;;
74213;SDS011;62576;55.694;37.494;2023-09-19T07:34:25;33.47;;;16.67;;
74213;SDS011;62576;55.694;37.494;2023-09-19T07:39:25;31.98;;;17.08;;
74213;SDS011;62576;55.694;37.494;2023-09-19T07:41:55;29.88;;;16.50;;
74213;SDS011;62576;55.694;37.494;2023-09-19T07:44:24;31.70;;;16.83;;
74213;SDS011;62576;55.694;37.494;2023-09-19T07:46:54;26.33;;;16.92;;
74213;SDS011;62576;55.694;37.494;2023-09-19T07:49:26;26.30;;;15.90;;
74213;SDS011;62576;55.694;37.494;2023-09-19T07:51:56;30.27;;;16.08;;
74213;SDS011;62576;55.694;37.494;2023-09-19T07:54:27;30.60;;;16.30;;
74213;SDS011;62576;55.694;37.494;2023-09-19T07:56:55;29.27;;;16.08;;
74213;SDS011;62576;55.694;37.494;2023-09-19T07:59:26;27.35;;;16.48;;
74213;SDS011;62576;55.694;37.494;2023-09-19T08:01:56;27.63;;;16.42;;
74213;SDS011;62576;55.694;37.494;2023-09-19T08:04:27;30.88;;;17.25;;
74213;SDS011;62576;55.694;37.494;2023-09-19T08:09:28;30.58;;;16.30;;
74213;SDS011;62576;55.694;37.494;2023-09-19T08:12:01;30.13;;;15.98;;
74213;SDS011;62576;55.694;37.494;2023-09-19T08:14:33;32.73;;;16.63;;
74213;SDS011;62576;55.694;37.494;2023-09-19T08:17:03;28.23;;;15.15;;
74213;SDS011;62576;55.694;37.494;2023-09-19T08:19:35;32.70;;;16.55;;
74213;SDS011;62576;55.694;37.494;2023-09-19T08:22:05;34.70;;;16.10;;
74213;SDS011;62576;55.694;37.494;2023-09-19T08:24:35;31.17;;;16.35;;
74213;SDS011;62576;55.694;37.494;2023-09-19T08:27:04;34.10;;;16.63;;
74213;SDS011;62576;55.694;37.494;2023-09-19T08:29:37;28.60;;;15.65;;
74213;SDS011;62576;55.694;37.494;2023-09-19T08:32:07;28.30;;;16.10;;
74213;SDS011;62576;55.694;37.494;2023-09-19T08:34:41;30.00;;;15.05;;
74213;SDS011;62576;55.694;37.494;2023-09-19T08:37:11;34.00;;;17.40;;
74213;SDS011;62576;55.694;37.494;2023-09-19T08:39:41;29.52;;;16.42;;
74213;SDS011;62576;55.694;37.494;2023-09-19T08:42:11;29.00;;;15.85;;
74213;SDS011;62576;55.694;37.494;2023-09-19T08:44:38;25.92;;;16.08;;
74213;SDS011;62576;55.694;37.494;2023-09-19T08:47:09;26.80;;;15.85;;
74213;SDS011;62576;55.694;37.494;2023-09-19T08:49:44;31.35;;;15.80;;
74213;SDS011;62576;55.694;37.494;2023-09-19T08:52:20;31.80;;;16.80;;
74213;SDS011;62576;55.694;37.494;2023-09-19T08:54:52;32.83;;;16.05;;
74213;SDS011;62576;55.694;37.494;2023-09-19T08:57:19;30.17;;;16.15;;
74213;SDS011;62576;55.694;37.494;2023-09-19T08:59:50;30.98;;;16.00;;
74213;SDS011;62576;55.694;37.494;2023-09-19T09:02:20;31.05;;;16.75;;
74213;SDS011;62576;55.694;37.494;2023-09-19T09:04:53;34.63;;;17.40;;
74213;SDS011;62576;55.694;37.494;2023-09-19T09:07:24;28.77;;;16.00;;
74213;SDS011;62576;55.694;37.494;2023-09-19T09:09:54;31.73;;;16.15;;
74213;SDS011;62576;55.694;37.494;2023-09-19T09:12:23;32.70;;;15.38;;
74213;SDS011;62576;55.694;37.494;2023-09-19T09:14:54;29.88;;;16.33;;
74213;SDS011;62576;55.694;37.494;2023-09-19T09:17:25;31.98;;;15.68;;
74213;SDS011;62576;55.694;37.494;2023-09-19T09:19:56;28.10;;;14.90;;
74213;SDS011;62576;55.694;37.494;2023-09-19T09:22:27;26.30;;;16.20;;
74213;SDS011;62576;55.694;37.494;2023-09-19T09:24:57;27.52;;;15.15;;
74213;SDS011;62576;55.694;37.494;2023-09-19T09:27:29;30.20;;;16.30;;
74213;SDS011;62576;55.694;37.494;2023-09-19T09:29:59;31.88;;;15.20;;
74213;SDS011;62576;55.694;37.494;2023-09-19T09:32:29;23.88;;;14.90;;
74213;SDS011;62576;55.694;37.494;2023-09-19T09:35:00;31.00;;;14.32;;
74213;SDS011;62576;55.694;37.494;2023-09-19T09:37:36;30.90;;;14.93;;
74213;SDS011;62576;55.694;37.494;2023-09-19T09:40:07;30.88;;;15.27;;
74213;SDS011;62576;55.694;37.494;2023-09-19T09:42:52;25.05;;;14.93;;
74213;SDS011;62576;55.694;37.494;2023-09-19T09:45:26;30.33;;;15.57;;
74213;SDS011;62576;55.694;37.494;2023-09-19T09:48:05;33.67;;;16.58;;
74213;SDS011;62576;55.694;37.494;2023-09-19T09:50:47;29.55;;;15.48;;
74213;SDS011;62576;55.694;37.494;2023-09-19T09:53:24;27.38;;;15.35;;
74213;SDS011;62576;55.694;37.494;2023-09-19T09:56:02;28.63;;;16.75;;
74213;SDS011;62576;55.694;37.494;2023-09-19T09:58:37;25.85;;;15.00;;
74213;SDS011;62576;55.694;37.494;2023-09-19T10:01:08;27.48;;;14.95;;
74213;SDS011;62576;55.694;37.494;2023-09-19T10:03:36;31.73;;;14.40;;
74213;SDS011;62576;55.694;37.494;2023-09-19T10:06:11;29.90;;;15.32;;
74213;SDS011;62576;55.694;37.494;2023-09-19T10:08:58;26.33;;;13.65;;
74213;SDS011;62576;55.694;37.494;2023-09-19T10:11:40;23.30;;;13.75;;
74213;SDS011;62576;55.694;37.494;2023-09-19T10:16:41;21.23;;;13.40;;
74213;SDS011;62576;55.694;37.494;2023-09-19T10:19:17;27.33;;;13.77;;
74213;SDS011;62576;55.694;37.494;2023-09-19T10:21:55;22.98;;;13.38;;
74213;SDS011;62576;55.694;37.494;2023-09-19T10:24:25;26.10;;;13.65;;
74213;SDS011;62576;55.694;37.494;2023-09-19T10:26:56;27.13;;;14.50;;
74213;SDS011;62576;55.694;37.494;2023-09-19T10:29:26;30.50;;;13.55;;
74213;SDS011;62576;55.694;37.494;2023-09-19T10:31:59;22.85;;;13.15;;
74213;SDS011;62576;55.694;37.494;2023-09-19T10:34:33;21.85;;;13.50;;
74213;SDS011;62576;55.694;37.494;2023-09-19T10:37:05;21.07;;;13.13;;
74213;SDS011;62576;55.694;37.494;2023-09-19T10:39:37;22.83;;;13.00;;
74213;SDS011;62576;55.694;37.494;2023-09-19T10:42:08;22.27;;;13.98;;
74213;SDS011;62576;55.694;37.494;2023-09-19T10:44:40;28.10;;;12.40;;
74213;SDS011;62576;55.694;37.494;2023-09-19T10:47:11;24.93;;;13.33;;
74213;SDS011;62576;55.694;37.494;2023-09-19T10:49:43;23.05;;;12.13;;
74213;SDS011;62576;55.694;37.494;2023-09-19T10:52:17;18.50;;;11.68;;
74213;SDS011;62576;55.694;37.494;2023-09-19T10:54:48;18.08;;;11.85;;
74213;SDS011;62576;55.694;37.494;2023-09-19T10:57:20;20.65;;;12.13;;
74213;SDS011;62576;55.694;37.494;2023-09-19T11:00:01;23.67;;;12.00;;
74213;SDS011;62576;55.694;37.494;2023-09-19T11:05:35;20.20;;;11.68;;
74213;SDS011;62576;55.694;37.494;2023-09-19T11:08:10;19.10;;;11.48;;
74213;SDS011;62576;55.694;37.494;2023-09-19T11:10:44;20.10;;;11.75;;
74213;SDS011;62576;55.694;37.494;2023-09-19T11:13:24;21.50;;;11.57;;
74213;SDS011;62576;55.694;37.494;2023-09-19T11:18:55;19.58;;;11.77;;
74213;SDS011;62576;55.694;37.494;2023-09-19T11:21:38;18.38;;;11.20;;
74213;SDS011;62576;55.694;37.494;2023-09-19T11:27:08;22.60;;;11.15;;
74213;SDS011;62576;55.694;37.494;2023-09-19T11:29:38;21.35;;;11.45;;
74213;SDS011;62576;55.694;37.494;2023-09-19T11:32:09;21.77;;;12.13;;
74213;SDS011;62576;55.694;37.494;2023-09-19T11:34:40;21.05;;;12.25;;
